Terminal Aerodrome Forecast
Issued by NWS

Home | Current Version | Previous Version | Text Only | Print | Product List | Glossary On
Versions: 1 2 3 4 5 6 7 8 9 10 11 12 13 14 15 16 17 18 19 20 21 22 23 24 25 26 27 28 29 30 31 32 33 34 35 36 37 38 39 40 41 42 43 44 45 46 47 48 49 50
000
FTUS43 KDMX 201742
TAFOTM
TAF
KOTM 201742Z 2018/2118 12005KT P6SM VCSH SCT040 BKN090
     FM202200 13009KT P6SM FEW040 BKN120
     FM210700 17007KT 5SM BR VCSH BKN060
      TEMPO 2108/2111 2SM TSRA BR BKN030CB
     FM211200 20012KT P6SM BKN080=

USA.gov is the U.S. government's official web portal to all federal, state and local government web resources and services.